createdAt,value
2019-05-13T00:00:23.379Z,101934.55
2019-05-13T00:02:54.414Z,101935.30
2019-05-13T00:05:24.999Z,101936.20
2019-05-13T00:07:55.620Z,101939.48
2019-05-13T00:10:26.093Z,101936.33
2019-05-13T00:12:56.619Z,101946.52
2019-05-13T00:15:34.007Z,101945.75
2019-05-13T00:18:04.850Z,101938.92
2019-05-13T00:20:35.591Z,101942.03
2019-05-13T00:23:06.141Z,101945.27
2019-05-13T00:25:36.907Z,101944.31
2019-05-13T00:28:07.365Z,101937.66
2019-05-13T00:30:38.037Z,101943.02
2019-05-13T00:33:08.584Z,101940.23
2019-05-13T00:35:39.041Z,101945.00
2019-05-13T00:38:09.799Z,101941.02
2019-05-13T00:40:40.636Z,101952.53
2019-05-13T00:43:14.061Z,101948.19
2019-05-13T00:45:44.776Z,101950.69
2019-05-13T00:48:15.171Z,101949.27
2019-05-13T00:50:45.654Z,101953.28
2019-05-13T00:53:16.538Z,101953.79
2019-05-13T00:55:47.620Z,101957.16
2019-05-13T00:58:18.126Z,101955.61
2019-05-13T01:00:48.919Z,101952.49
2019-05-13T01:03:19.994Z,101952.34
2019-05-13T01:05:50.930Z,101953.34
2019-05-13T01:08:23.681Z,101959.17
2019-05-13T01:10:54.285Z,101953.06
2019-05-13T01:13:24.846Z,101967.66
2019-05-13T01:15:55.350Z,101958.55
2019-05-13T01:18:25.832Z,101955.31
2019-05-13T01:20:56.406Z,101955.73
2019-05-13T01:23:27.303Z,101954.07
2019-05-13T01:25:57.800Z,101958.98
2019-05-13T01:28:28.932Z,101952.29
2019-05-13T01:30:59.401Z,101961.69
2019-05-13T01:33:29.933Z,101961.89
2019-05-13T01:36:01.036Z,101971.36
2019-05-13T01:38:33.947Z,101971.19
2019-05-13T01:41:04.548Z,101974.64
2019-05-13T01:43:35.134Z,101966.09
2019-05-13T01:46:05.614Z,101965.55
2019-05-13T01:48:36.104Z,101971.31
2019-05-13T01:51:06.746Z,101971.77
2019-05-13T01:53:37.300Z,101974.14
2019-05-13T01:56:08.353Z,101979.69
2019-05-13T01:58:41.374Z,101975.33
2019-05-13T02:01:13.836Z,101979.93
2019-05-13T02:03:44.544Z,101984.48
2019-05-13T02:06:15.461Z,101980.55
2019-05-13T02:08:56.263Z,101976.74
2019-05-13T02:11:26.742Z,101983.27
2019-05-13T02:13:58.228Z,101990.60
2019-05-13T02:16:29.078Z,101987.55
2019-05-13T02:18:59.555Z,101990.28
2019-05-13T02:21:33.469Z,101994.95
2019-05-13T02:24:07.216Z,101988.75
2019-05-13T02:26:38.049Z,101988.59
2019-05-13T02:29:08.407Z,101986.56
2019-05-13T02:31:46.528Z,101990.98
2019-05-13T02:34:13.613Z,101992.94
2019-05-13T02:36:44.063Z,101987.66
2019-05-13T02:39:14.550Z,101980.58
2019-05-13T02:41:45.057Z,101981.31
2019-05-13T02:44:15.593Z,101989.51
2019-05-13T02:46:46.529Z,101988.65
2019-05-13T02:49:17.279Z,101991.39
2019-05-13T02:51:47.743Z,101990.23
2019-05-13T02:54:18.198Z,101992.52
2019-05-13T02:56:48.662Z,101991.67
2019-05-13T02:59:19.174Z,101989.67
2019-05-13T03:01:53.003Z,101992.95
2019-05-13T03:04:23.372Z,101991.34
2019-05-13T03:06:57.772Z,102000.09
2019-05-13T03:09:28.164Z,101999.84
2019-05-13T03:11:58.649Z,101991.69
2019-05-13T03:14:32.339Z,101990.92
2019-05-13T03:17:12.826Z,101993.88
2019-05-13T03:19:43.694Z,102000.13
2019-05-13T03:22:14.256Z,101997.80
2019-05-13T03:24:45.012Z,101997.98
2019-05-13T03:27:20.039Z,102000.89
2019-05-13T03:29:47.924Z,101994.30
2019-05-13T03:32:18.247Z,101991.18
2019-05-13T03:34:48.747Z,101997.47
2019-05-13T03:37:25.366Z,102004.76
2019-05-13T03:39:52.396Z,102002.75
2019-05-13T03:42:26.502Z,102003.13
2019-05-13T03:44:57.156Z,102003.02
2019-05-13T03:47:28.351Z,102006.86
2019-05-13T03:50:03.596Z,102022.69
2019-05-13T03:52:33.964Z,102018.67
2019-05-13T03:55:05.016Z,102027.61
2019-05-13T03:57:35.460Z,102028.50
2019-05-13T04:00:06.152Z,102033.55
2019-05-13T04:02:36.630Z,102028.20
2019-05-13T04:05:07.936Z,102036.13
2019-05-13T04:07:57.461Z,102029.49
2019-05-13T04:10:27.973Z,102023.22
2019-05-13T04:12:58.821Z,102031.52
2019-05-13T04:15:32.000Z,102025.27
2019-05-13T04:18:03.087Z,102030.67
2019-05-13T04:20:33.835Z,102030.75
2019-05-13T04:23:04.766Z,102036.95
2019-05-13T04:25:39.384Z,102045.98
2019-05-13T04:28:07.753Z,102052.19
2019-05-13T04:30:38.206Z,102051.47
2019-05-13T04:33:09.245Z,102043.47
2019-05-13T04:35:43.616Z,102052.34
2019-05-13T04:38:14.190Z,102059.46
2019-05-13T04:40:44.819Z,102066.14
2019-05-13T04:43:15.902Z,102066.95
2019-05-13T04:45:47.211Z,102068.34
2019-05-13T04:48:23.250Z,102060.72
2019-05-13T04:51:03.067Z,102061.08
2019-05-13T04:53:33.565Z,102062.45
2019-05-13T04:56:14.269Z,102054.19
2019-05-13T04:58:45.483Z,102062.89
2019-05-13T05:02:13.610Z,102065.38
2019-05-13T05:05:05.944Z,102066.28
2019-05-13T05:08:11.968Z,102054.96
2019-05-13T05:11:52.892Z,102063.78
2019-05-13T05:14:55.135Z,102073.06
2019-05-13T05:18:16.456Z,102072.30
2019-05-13T05:21:12.011Z,102073.96
2019-05-13T05:24:41.679Z,102081.97
2019-05-13T05:27:51.417Z,102077.44
2019-05-13T05:31:11.555Z,102082.61
2019-05-13T05:34:24.951Z,102086.38
2019-05-13T05:37:41.610Z,102086.97
2019-05-13T05:40:12.602Z,102088.50
2019-05-13T05:42:45.487Z,102095.19
2019-05-13T05:45:17.155Z,102093.38
2019-05-13T05:47:51.622Z,102091.53
2019-05-13T05:50:22.988Z,102092.49
2019-05-13T05:52:55.476Z,102091.33
2019-05-13T05:55:27.833Z,102086.14
2019-05-13T05:57:58.746Z,102090.71
2019-05-13T06:00:29.186Z,102088.80
2019-05-13T06:03:02.619Z,102090.73
2019-05-13T06:05:33.254Z,102083.23
2019-05-13T06:08:03.700Z,102087.65
2019-05-13T06:10:46.295Z,102085.32
2019-05-13T06:13:06.848Z,102098.94
2019-05-13T06:15:37.251Z,102091.60
2019-05-13T06:18:08.043Z,102102.37
2019-05-13T06:20:38.796Z,102088.11
2019-05-13T06:23:11.346Z,102098.54
2019-05-13T06:25:42.930Z,102088.28
2019-05-13T06:28:14.259Z,102091.54
2019-05-13T06:30:44.884Z,102099.13
2019-05-13T06:33:15.847Z,102099.13
2019-05-13T06:35:46.493Z,102108.26
2019-05-13T06:38:16.870Z,102099.48
2019-05-13T06:40:59.507Z,102094.15
2019-05-13T06:43:21.139Z,102082.88
2019-05-13T06:45:52.282Z,102097.66
2019-05-13T06:48:23.187Z,102097.27
2019-05-13T06:50:53.699Z,102096.53
2019-05-13T06:53:24.162Z,102100.45
2019-05-13T06:55:54.845Z,102088.12
2019-05-13T06:58:26.026Z,102095.57
2019-05-13T07:00:58.083Z,102099.14
2019-05-13T07:03:28.681Z,102089.55
2019-05-13T07:06:01.649Z,102090.08
2019-05-13T07:08:31.604Z,102093.55
2019-05-13T07:11:17.127Z,102094.49
2019-05-13T07:13:34.984Z,102074.59
2019-05-13T07:16:05.757Z,102095.97
2019-05-13T07:18:36.233Z,102088.13
2019-05-13T07:21:06.652Z,102082.44
2019-05-13T07:23:37.360Z,102086.23
2019-05-13T07:26:07.795Z,102074.59
2019-05-13T07:28:38.570Z,102081.67
2019-05-13T07:31:11.406Z,102064.25
2019-05-13T07:33:42.597Z,102076.42
2019-05-13T07:36:13.553Z,102079.45
2019-05-13T07:38:44.937Z,102079.80
2019-05-13T07:41:15.411Z,102078.92
2019-05-13T07:43:45.854Z,102080.44
2019-05-13T07:46:16.327Z,102075.36
2019-05-13T07:48:46.673Z,102088.70
2019-05-13T07:51:17.081Z,102087.34
2019-05-13T07:53:47.555Z,102085.23
2019-05-13T07:56:18.178Z,102086.44
2019-05-13T07:58:49.060Z,102090.25
2019-05-13T08:01:22.090Z,102081.94
2019-05-13T08:03:51.978Z,102082.50
2019-05-13T08:06:22.407Z,102077.06
2019-05-13T08:08:52.830Z,102085.02
2019-05-13T08:11:24.080Z,102087.73
2019-05-13T08:13:54.969Z,102087.98
2019-05-13T08:16:25.617Z,102087.14
2019-05-13T08:18:56.072Z,102086.61
2019-05-13T08:21:26.624Z,102081.83
2019-05-13T08:23:57.042Z,102081.23
2019-05-13T08:26:29.072Z,102077.03
2019-05-13T08:29:03.203Z,102072.59
2019-05-13T08:31:32.331Z,102072.34
2019-05-13T08:34:02.844Z,102073.74
2019-05-13T08:36:33.263Z,102068.75
2019-05-13T08:39:05.035Z,102070.91
2019-05-13T08:41:35.746Z,102062.45
2019-05-13T08:44:06.418Z,102064.30
2019-05-13T08:46:36.887Z,102062.12
2019-05-13T08:49:08.334Z,102060.80
2019-05-13T08:51:41.798Z,102061.01
2019-05-13T08:54:11.698Z,102060.34
2019-05-13T08:56:42.325Z,102065.03
2019-05-13T08:59:12.833Z,102063.41
2019-05-13T09:01:43.240Z,102064.54
2019-05-13T09:04:14.272Z,102061.95
2019-05-13T09:06:44.812Z,102053.42
2019-05-13T09:09:15.538Z,102060.20
2019-05-13T09:11:46.012Z,102064.66
2019-05-13T09:14:16.418Z,102049.70
2019-05-13T09:16:46.913Z,102051.64
2019-05-13T09:19:17.588Z,102049.55
2019-05-13T09:21:48.072Z,102055.14
2019-05-13T09:24:26.131Z,102054.99
2019-05-13T09:26:52.687Z,102048.75
2019-05-13T09:29:23.256Z,102041.89
2019-05-13T09:31:53.716Z,102049.41
2019-05-13T09:34:24.164Z,102044.94
2019-05-13T09:36:54.654Z,102050.15
2019-05-13T09:39:25.263Z,102043.81
2019-05-13T09:41:55.708Z,102044.12
2019-05-13T09:44:26.914Z,102043.58
2019-05-13T09:46:57.377Z,102045.89
2019-05-13T09:49:28.084Z,102047.90
2019-05-13T09:51:58.785Z,102043.64
2019-05-13T09:54:32.534Z,102026.20
2019-05-13T09:57:02.172Z,102033.11
2019-05-13T09:59:32.561Z,102034.11
2019-05-13T10:02:03.507Z,102027.09
2019-05-13T10:04:34.014Z,102044.83
2019-05-13T10:07:04.792Z,102007.98
2019-05-13T10:09:35.704Z,102024.49
2019-05-13T10:12:06.278Z,102023.69
2019-05-13T10:14:36.689Z,102019.75
2019-05-13T10:17:07.714Z,102014.06
2019-05-13T10:19:38.524Z,102011.91
2019-05-13T10:22:11.787Z,102017.13
2019-05-13T10:24:42.398Z,102014.95
2019-05-13T10:27:13.421Z,102024.06
2019-05-13T10:29:44.264Z,102025.85
2019-05-13T10:32:14.910Z,102022.34
2019-05-13T10:34:46.498Z,102019.28
2019-05-13T10:37:16.875Z,102015.81
2019-05-13T10:39:47.869Z,102002.29
2019-05-13T10:42:18.243Z,102015.67
2019-05-13T10:44:51.736Z,102019.75
2019-05-13T10:47:22.765Z,102013.02
2019-05-13T10:49:53.605Z,102000.01
2019-05-13T10:52:24.231Z,101997.48
2019-05-13T10:54:54.609Z,101993.91
2019-05-13T10:57:25.095Z,101984.34
2019-05-13T10:59:59.710Z,101990.99
2019-05-13T11:02:27.942Z,101984.66
2019-05-13T11:04:58.835Z,101995.18
2019-05-13T11:07:31.333Z,101992.52
2019-05-13T11:10:02.362Z,101985.31
2019-05-13T11:12:33.661Z,101981.14
2019-05-13T11:15:05.229Z,101986.59
2019-05-13T11:17:35.702Z,101983.92
2019-05-13T11:20:06.564Z,101978.16
2019-05-13T11:22:36.996Z,101973.06
2019-05-13T11:25:07.574Z,101981.67
2019-05-13T11:27:38.456Z,101972.47
2019-05-13T11:30:09.134Z,101966.73
2019-05-13T11:32:42.416Z,101972.78
2019-05-13T11:35:12.997Z,101963.55
2019-05-13T11:37:43.785Z,101982.79
2019-05-13T11:40:14.604Z,101971.23
2019-05-13T11:42:45.058Z,101961.16
2019-05-13T11:45:16.975Z,101954.30
2019-05-13T11:47:47.498Z,101952.67
2019-05-13T11:50:18.092Z,101949.08
2019-05-13T11:52:52.140Z,101936.41
2019-05-13T11:55:22.955Z,101963.39
2019-05-13T11:57:53.684Z,101942.97
2019-05-13T12:00:53.348Z,101948.30
2019-05-13T12:03:24.331Z,101947.93
2019-05-13T12:05:55.389Z,101953.64
2019-05-13T12:08:26.230Z,101942.59
2019-05-13T12:10:56.678Z,101944.70
2019-05-13T12:13:27.869Z,101931.99
2019-05-13T12:15:58.657Z,101937.52
2019-05-13T12:18:29.155Z,101922.88
2019-05-13T12:21:02.884Z,101928.72
2019-05-13T12:23:32.068Z,101914.23
2019-05-13T12:26:04.035Z,101918.53
2019-05-13T12:28:35.330Z,101917.86
2019-05-13T12:31:06.504Z,101912.61
2019-05-13T12:33:36.925Z,101907.64
2019-05-13T12:36:14.830Z,101907.54
2019-05-13T12:38:44.010Z,101905.23
2019-05-13T12:41:13.076Z,101911.88
2019-05-13T12:43:43.682Z,101906.44
2019-05-13T12:46:14.428Z,101909.36
2019-05-13T12:48:45.095Z,101900.20
2019-05-13T12:51:15.514Z,101895.98
2019-05-13T12:53:46.451Z,101893.54
2019-05-13T12:56:16.963Z,101902.41
2019-05-13T12:58:47.420Z,101895.13
2019-05-13T13:01:17.867Z,101886.50
2019-05-13T13:03:48.266Z,101900.44
2019-05-13T13:06:31.285Z,101892.47
2019-05-13T13:08:51.522Z,101867.00
2019-05-13T13:11:22.845Z,101852.36
2019-05-13T13:13:59.706Z,101867.05
2019-05-13T13:16:34.048Z,101866.59
2019-05-13T13:18:58.196Z,101858.05
2019-05-13T13:21:34.443Z,101866.80
2019-05-13T13:24:04.561Z,101849.95
2019-05-13T13:26:34.044Z,101861.60
2019-05-13T13:29:04.573Z,101856.43
2019-05-13T13:31:35.276Z,101870.38
2019-05-13T13:34:12.224Z,101860.78
2019-05-13T13:36:38.506Z,101861.38
2019-05-13T13:39:13.735Z,101850.48
2019-05-13T13:41:43.766Z,101847.59
2019-05-13T13:44:14.810Z,101846.34
2019-05-13T13:46:49.557Z,101847.27
2019-05-13T13:49:17.505Z,101809.66
2019-05-13T13:51:47.900Z,101842.99
2019-05-13T13:54:18.371Z,101839.42
2019-05-13T13:56:54.512Z,101830.03
2019-05-13T13:59:24.594Z,101838.41
2019-05-13T14:01:55.483Z,101853.20
2019-05-13T14:04:26.032Z,101840.49
2019-05-13T14:09:29.260Z,101829.77
2019-05-13T14:12:01.851Z,101828.98
2019-05-13T14:14:32.058Z,101829.66
2019-05-13T14:17:03.184Z,101827.01
2019-05-13T14:19:33.874Z,101818.73
2019-05-13T14:22:04.312Z,101797.64
2019-05-13T14:24:35.050Z,101810.10
2019-05-13T14:27:05.803Z,101813.97
2019-05-13T14:29:41.253Z,101809.09
2019-05-13T14:32:08.348Z,101793.67
2019-05-13T14:34:38.733Z,101810.89
2019-05-13T14:37:11.528Z,101798.72
2019-05-13T14:39:41.476Z,101791.66
2019-05-13T14:42:12.278Z,101805.89
2019-05-13T14:44:43.086Z,101795.23
2019-05-13T14:47:13.725Z,101793.37
2019-05-13T14:49:44.302Z,101777.54
2019-05-13T14:52:14.692Z,101779.47
2019-05-13T14:54:45.646Z,101791.11
2019-05-13T14:57:16.542Z,101785.78
2019-05-13T14:59:47.471Z,101786.95
2019-05-13T15:02:18.287Z,101780.53
2019-05-13T15:04:52.425Z,101778.40
2019-05-13T15:07:23.378Z,101783.83
2019-05-13T15:09:54.103Z,101787.98
2019-05-13T15:12:24.956Z,101770.26
2019-05-13T15:14:55.421Z,101780.88
2019-05-13T15:17:26.026Z,101771.09
2019-05-13T15:19:56.561Z,101778.38
2019-05-13T15:22:27.048Z,101786.77
2019-05-13T15:25:08.547Z,101766.52
2019-05-13T15:27:42.215Z,101779.38
2019-05-13T15:30:17.838Z,101783.91
2019-05-13T15:32:45.632Z,101775.75
2019-05-13T15:35:24.610Z,101777.57
2019-05-13T15:37:55.365Z,101781.33
2019-05-13T15:40:26.001Z,101777.91
2019-05-13T15:42:56.753Z,101784.39
2019-05-13T15:45:27.804Z,101772.39
2019-05-13T15:47:59.253Z,101773.11
2019-05-13T15:50:31.895Z,101777.89
2019-05-13T15:53:02.962Z,101775.02
2019-05-13T15:55:33.879Z,101771.99
2019-05-13T15:58:05.050Z,101769.03
2019-05-13T16:00:35.646Z,101765.87
2019-05-13T16:03:06.160Z,101758.28
2019-05-13T16:05:39.103Z,101763.50
2019-05-13T16:08:11.972Z,101764.57
2019-05-13T16:10:42.223Z,101767.73
2019-05-13T16:13:12.764Z,101763.02
2019-05-13T16:15:43.239Z,101765.76
2019-05-13T16:18:13.663Z,101756.05
2019-05-13T16:20:45.366Z,101763.06
2019-05-13T16:23:16.121Z,101765.70
2019-05-13T16:25:46.864Z,101757.38
2019-05-13T16:28:17.468Z,101754.53
2019-05-13T16:30:51.397Z,101753.10
2019-05-13T16:33:21.255Z,101749.63
2019-05-13T16:36:12.371Z,101752.52
2019-05-13T16:38:42.288Z,101754.91
2019-05-13T16:41:12.861Z,101765.11
2019-05-13T16:43:43.439Z,101763.82
2019-05-13T16:46:13.993Z,101758.86
2019-05-13T16:48:44.691Z,101761.97
2019-05-13T16:51:15.258Z,101754.26
2019-05-13T16:53:45.817Z,101750.95
2019-05-13T16:56:26.337Z,101756.25
2019-05-13T16:58:48.482Z,101753.65
2019-05-13T17:01:19.107Z,101752.27
2019-05-13T17:03:51.288Z,101756.62
2019-05-13T17:06:21.862Z,101752.63
2019-05-13T17:08:52.417Z,101759.41
2019-05-13T17:11:22.880Z,101738.68
2019-05-13T17:13:53.742Z,101752.22
2019-05-13T17:16:24.998Z,101746.73
2019-05-13T17:18:55.447Z,101752.13
2019-05-13T17:21:26.022Z,101755.89
2019-05-13T17:23:56.448Z,101750.97
2019-05-13T17:26:27.377Z,101750.82
2019-05-13T17:28:57.920Z,101760.59
2019-05-13T17:31:28.373Z,101750.54
2019-05-13T17:34:01.316Z,101757.50
2019-05-13T17:36:32.506Z,101756.84
2019-05-13T17:39:12.560Z,101757.27
2019-05-13T17:41:43.412Z,101754.66
2019-05-13T17:44:15.944Z,101759.17
2019-05-13T17:46:46.466Z,101763.61
2019-05-13T17:49:16.883Z,101756.57
2019-05-13T17:51:47.923Z,101756.06
2019-05-13T17:54:18.754Z,101750.91
2019-05-13T17:56:49.189Z,101747.83
2019-05-13T17:59:21.687Z,101749.73
2019-05-13T18:01:52.016Z,101748.02
2019-05-13T18:04:22.798Z,101741.64
2019-05-13T18:06:53.271Z,101749.73
2019-05-13T18:09:25.047Z,101735.69
2019-05-13T18:11:55.551Z,101739.58
2019-05-13T18:14:25.938Z,101743.07
2019-05-13T18:17:06.115Z,101733.44
2019-05-13T18:19:37.879Z,101738.41
2019-05-13T18:22:15.341Z,101742.05
2019-05-13T18:24:46.391Z,101743.82
2019-05-13T18:27:16.824Z,101742.11
2019-05-13T18:29:51.642Z,101743.62
2019-05-13T18:32:22.187Z,101741.47
2019-05-13T18:34:52.571Z,101745.41
2019-05-13T18:37:23.066Z,101734.72
2019-05-13T18:39:53.516Z,101747.88
2019-05-13T18:42:23.943Z,101746.18
2019-05-13T18:44:54.329Z,101753.21
2019-05-13T18:47:25.344Z,101749.76
2019-05-13T18:49:55.777Z,101750.19
2019-05-13T18:52:26.760Z,101749.77
2019-05-13T18:54:57.224Z,101748.02
2019-05-13T18:57:28.112Z,101751.08
2019-05-13T18:59:58.923Z,101751.05
2019-05-13T19:02:31.873Z,101749.25
2019-05-13T19:05:01.795Z,101749.24
2019-05-13T19:07:33.326Z,101755.31
2019-05-13T19:10:04.928Z,101757.03
2019-05-13T19:12:35.331Z,101758.75
2019-05-13T19:15:08.133Z,101758.28
2019-05-13T19:17:41.333Z,101760.43
2019-05-13T19:20:11.655Z,101754.77
2019-05-13T19:22:43.276Z,101758.25
2019-05-13T19:25:15.190Z,101766.86
2019-05-13T19:27:45.769Z,101771.20
2019-05-13T19:30:16.256Z,101772.89
2019-05-13T19:32:46.754Z,101772.45
2019-05-13T19:35:17.342Z,101767.20
2019-05-13T19:37:51.400Z,101764.53
2019-05-13T19:40:22.098Z,101762.80
2019-05-13T19:42:52.612Z,101767.11
2019-05-13T19:45:23.241Z,101766.59
2019-05-13T19:48:01.240Z,101767.81
2019-05-13T19:50:32.020Z,101772.95
2019-05-13T19:53:02.696Z,101778.59
2019-05-13T19:55:34.192Z,101778.59
2019-05-13T19:58:06.092Z,101777.70
2019-05-13T20:00:36.682Z,101779.37
2019-05-13T20:03:07.623Z,101779.33
2019-05-13T20:05:38.376Z,101775.63
2019-05-13T20:08:08.949Z,101778.08
2019-05-13T20:10:39.412Z,101773.66
2019-05-13T20:13:11.236Z,101767.20
2019-05-13T20:15:41.859Z,101772.78
2019-05-13T20:18:14.686Z,101773.20
2019-05-13T20:20:45.180Z,101767.08
2019-05-13T20:23:15.913Z,101766.18
2019-05-13T20:25:48.712Z,101763.90
2019-05-13T20:28:19.196Z,101767.77
2019-05-13T20:30:51.125Z,101771.58
2019-05-13T20:33:22.164Z,101775.84
2019-05-13T20:35:52.797Z,101775.74
2019-05-13T20:38:23.223Z,101776.59
2019-05-13T20:40:53.811Z,101773.02
2019-05-13T20:43:24.222Z,101774.27
2019-05-13T20:45:54.668Z,101777.33
2019-05-13T20:48:25.202Z,101784.12
2019-05-13T20:51:05.868Z,101776.83
2019-05-13T20:53:41.231Z,101786.75
2019-05-13T20:56:15.497Z,101782.30
2019-05-13T20:58:46.063Z,101782.25
2019-05-13T21:01:16.839Z,101781.75
2019-05-13T21:03:47.309Z,101783.05
2019-05-13T21:06:32.739Z,101780.38
2019-05-13T21:09:11.184Z,101782.95
2019-05-13T21:11:38.060Z,101779.05
2019-05-13T21:14:08.473Z,101777.33
2019-05-13T21:16:41.663Z,101770.73
2019-05-13T21:19:12.583Z,101776.27
2019-05-13T21:21:51.102Z,101772.32
2019-05-13T21:24:21.634Z,101768.02
2019-05-13T21:26:53.770Z,101774.89
2019-05-13T21:29:24.288Z,101776.58
2019-05-13T21:31:54.735Z,101775.52
2019-05-13T21:34:25.415Z,101776.02
2019-05-13T21:36:55.810Z,101780.81
2019-05-13T21:39:26.464Z,101778.69
2019-05-13T21:41:56.957Z,101776.31
2019-05-13T21:44:27.953Z,101774.88
2019-05-13T21:46:58.309Z,101775.66
2019-05-13T21:49:31.471Z,101776.50
2019-05-13T21:52:01.529Z,101769.81
2019-05-13T21:54:33.572Z,101776.25
2019-05-13T21:57:04.035Z,101771.81
2019-05-13T21:59:34.459Z,101777.35
2019-05-13T22:02:05.205Z,101771.22
2019-05-13T22:04:35.945Z,101776.34
2019-05-13T22:07:12.370Z,101785.89
2019-05-13T22:09:43.286Z,101783.49
2019-05-13T22:12:13.995Z,101780.90
2019-05-13T22:14:44.310Z,101780.81
2019-05-13T22:17:14.928Z,101773.89
2019-05-13T22:19:45.253Z,101772.32
2019-05-13T22:22:15.761Z,101775.08
2019-05-13T22:24:48.622Z,101772.48
2019-05-13T22:27:19.018Z,101768.19
2019-05-13T22:29:51.330Z,101769.11
2019-05-13T22:32:22.093Z,101773.75
2019-05-13T22:34:52.477Z,101767.89
2019-05-13T22:37:23.248Z,101766.20
2019-05-13T22:39:53.671Z,101770.17
2019-05-13T22:42:24.064Z,101761.12
2019-05-13T22:44:54.497Z,101771.75
2019-05-13T22:47:24.946Z,101770.20
2019-05-13T22:49:57.763Z,101770.45
2019-05-13T22:52:28.202Z,101763.41
2019-05-13T22:54:58.953Z,101765.48
2019-05-13T22:57:31.355Z,101762.10
2019-05-13T23:00:02.050Z,101763.60
2019-05-13T23:02:33.508Z,101764.77
2019-05-13T23:05:04.183Z,101761.27
2019-05-13T23:07:34.891Z,101764.97
2019-05-13T23:10:05.895Z,101767.39
2019-05-13T23:12:36.808Z,101765.16
2019-05-13T23:15:08.068Z,101760.34
2019-05-13T23:17:38.392Z,101760.50
2019-05-13T23:20:09.023Z,101759.36
2019-05-13T23:22:41.311Z,101757.54
2019-05-13T23:25:12.259Z,101750.03
2019-05-13T23:27:42.795Z,101747.94
2019-05-13T23:30:14.166Z,101751.23
2019-05-13T23:32:44.715Z,101745.98
2019-05-13T23:35:15.724Z,101741.31
2019-05-13T23:37:46.933Z,101743.47
2019-05-13T23:40:17.347Z,101741.38
2019-05-13T23:42:48.591Z,101744.59
2019-05-13T23:45:19.195Z,101743.27
2019-05-13T23:47:51.059Z,101738.02
2019-05-13T23:50:21.785Z,101731.95
2019-05-13T23:52:52.399Z,101730.75
2019-05-13T23:55:23.208Z,101726.89
2019-05-13T23:57:53.763Z,101724.27
